Time;durP1;ratioP1;P1;durP2;ratioP2;P2;SDS_P1;SDS_P2;PMS_P1;PMS_P2;Temp;Humidity;BMP_temperature;BMP_pressure;BME280_temperature;BME280_humidity;BME280_pressure;Samples;Min_cycle;Max_cycle;Signal;HPM_P1;HPM_P2
2021/11/22 00:02:14;;;;;;;;;8.00;8.00;;;;;-147.17;100.00;50111.72;5031351;28;51744;-74
2021/11/22 00:04:40;;;;;;;;;7.25;7.25;;;;;-147.17;100.00;50131.41;5028693;28;51390;-72
2021/11/22 00:07:05;;;;;;;;;8.25;7.00;;;;;-147.17;100.00;50129.44;5021057;28;51214;-71
2021/11/22 00:09:33;;;;;;;;;6.50;5.50;;;;;-147.17;100.00;50141.25;5031780;28;51045;-67
2021/11/22 00:11:58;;;;;;;;;8.75;7.00;;;;;-147.17;100.00;50127.47;5030459;28;52108;-68
2021/11/22 00:14:24;;;;;;;;;6.75;6.00;;;;;-147.17;100.00;50131.41;5027158;28;52552;-71
2021/11/22 00:16:49;;;;;;;;;10.25;8.25;;;;;-147.17;100.00;50123.53;5018865;28;51245;-70
2021/11/22 00:19:14;;;;;;;;;8.50;8.25;;;;;-147.17;100.00;50131.41;5031919;28;50963;-69
2021/11/22 00:21:39;;;;;;;;;11.00;10.00;;;;;-147.17;100.00;50121.56;5023931;28;50923;-68
2021/11/22 00:24:05;;;;;;;;;9.75;7.75;;;;;-147.17;100.00;50151.09;5024100;28;51064;-69
2021/11/22 00:26:31;;;;;;;;;8.00;7.00;;;;;-147.17;100.00;50143.22;5022516;28;51141;-71
2021/11/22 00:28:56;;;;;;;;;12.50;11.25;;;;;-147.17;100.00;50166.84;5042124;28;51497;-67
2021/11/22 00:31:21;;;;;;;;;12.50;11.25;;;;;-147.17;100.00;50119.59;5031362;28;52459;-69
2021/11/22 00:33:48;;;;;;;;;9.00;9.00;;;;;-147.17;100.00;50137.31;5024819;28;51174;-69
2021/11/22 00:36:13;;;;;;;;;9.00;8.75;;;;;-147.17;100.00;50121.56;5024984;28;51303;-71
2021/11/22 00:38:39;;;;;;;;;12.75;12.75;;;;;-147.17;100.00;50109.75;5017318;28;51062;-74
2021/11/22 00:41:05;;;;;;;;;14.00;14.00;;;;;-147.17;100.00;50145.19;5030865;28;51128;-73
2021/11/22 00:43:30;;;;;;;;;13.75;13.25;;;;;-147.17;100.00;50119.59;5025041;28;51292;-73
2021/11/22 00:45:56;;;;;;;;;16.00;14.50;;;;;-147.17;100.00;50164.88;5018678;28;51378;-75
2021/11/22 00:48:22;;;;;;;;;18.00;17.00;;;;;-147.17;100.00;50129.44;5021760;28;51201;-75
2021/11/22 00:50:50;;;;;;;;;17.50;16.00;;;;;-147.17;100.00;50131.41;5027680;28;51143;-70
2021/11/22 00:53:15;;;;;;;;;18.50;17.00;;;;;-147.17;100.00;50111.72;5022614;28;51317;-69
2021/11/22 00:55:40;;;;;;;;;17.00;15.00;;;;;-147.17;100.00;50139.28;5031089;28;51111;-74
2021/11/22 00:58:06;;;;;;;;;12.75;12.25;;;;;-147.17;100.00;50099.91;5025053;28;51156;-73
2021/11/22 01:00:33;;;;;;;;;11.75;9.25;;;;;-147.17;100.00;50157.00;5024970;28;52251;-66
2021/11/22 01:02:58;;;;;;;;;13.50;12.50;;;;;-147.17;100.00;50149.13;5031617;28;51148;-69
2021/11/22 01:05:23;;;;;;;;;10.50;8.00;;;;;-147.17;100.00;50129.44;5028540;28;51160;-69
2021/11/22 01:07:49;;;;;;;;;7.75;7.75;;;;;-147.17;100.00;50139.28;5019103;28;51406;-68
2021/11/22 01:10:16;;;;;;;;;13.00;10.25;;;;;-147.17;100.00;50153.06;5019572;28;53868;-72
2021/11/22 01:12:41;;;;;;;;;11.00;9.25;;;;;-147.17;100.00;50157.00;5024238;28;51094;-75
2021/11/22 01:15:10;;;;;;;;;8.75;8.00;;;;;-147.17;100.00;50186.53;5022906;28;51181;-73
2021/11/22 01:17:38;;;;;;;;;7.00;7.00;;;;;-147.17;100.00;50166.84;5018234;28;50989;-75
2021/11/22 01:20:05;;;;;;;;;9.25;8.50;;;;;-147.17;100.00;50143.22;5025514;28;51167;-70
2021/11/22 01:22:32;;;;;;;;;8.50;7.50;;;;;-147.17;100.00;50174.72;5028658;28;51168;-67
2021/11/22 01:24:57;;;;;;;;;9.25;8.75;;;;;-147.17;100.00;50147.16;5032514;28;50982;-74
2021/11/22 01:27:23;;;;;;;;;8.00;7.00;;;;;-147.17;100.00;50143.22;5027838;28;51208;-68
2021/11/22 01:29:48;;;;;;;;;12.00;11.00;;;;;-147.17;100.00;50190.47;5020884;28;51868;-69
2021/11/22 01:32:14;;;;;;;;;10.50;9.00;;;;;-147.17;100.00;50143.22;5024181;28;52757;-70
2021/11/22 01:34:39;;;;;;;;;11.50;10.75;;;;;-147.17;100.00;50143.22;5024240;28;51169;-70
2021/11/22 01:37:04;;;;;;;;;6.50;3.25;;;;;-147.17;100.00;50186.53;5032216;28;51131;-69
2021/11/22 01:39:30;;;;;;;;;11.00;9.25;;;;;-147.17;100.00;50137.31;5014294;28;51905;-67
2021/11/22 01:41:56;;;;;;;;;12.50;7.75;;;;;-147.17;100.00;50143.22;5030033;28;51201;-66
2021/11/22 01:44:21;;;;;;;;;8.00;8.00;;;;;-147.17;100.00;50157.00;5013832;28;51358;-71
2021/11/22 01:46:48;;;;;;;;;10.75;8.75;;;;;-147.17;100.00;50168.81;5016477;28;51443;-72
2021/11/22 01:49:15;;;;;;;;;8.50;7.25;;;;;-147.17;100.00;50155.03;5025098;28;52058;-69
2021/11/22 01:51:41;;;;;;;;;7.00;6.50;;;;;-147.17;100.00;50135.34;5034166;28;51035;-68
2021/11/22 01:54:06;;;;;;;;;7.00;7.00;;;;;-147.17;100.00;50174.72;5017025;28;51212;-68
2021/11/22 01:56:32;;;;;;;;;7.25;6.50;;;;;-147.17;100.00;50172.75;5023132;28;51748;-68
2021/11/22 01:58:57;;;;;;;;;11.00;9.25;;;;;-147.17;100.00;50164.88;5019992;28;51876;-68
2021/11/22 02:01:23;;;;;;;;;8.75;8.00;;;;;-147.17;100.00;50162.91;5020487;28;51452;-70
2021/11/22 02:03:48;;;;;;;;;7.00;6.75;;;;;-147.17;100.00;50172.75;5023560;28;51948;-77
2021/11/22 02:06:14;;;;;;;;;7.25;6.75;;;;;-147.17;100.00;50151.09;5033326;28;51439;-74
2021/11/22 02:08:39;;;;;;;;;7.75;7.75;;;;;-147.17;100.00;50166.84;5021895;28;52960;-73
2021/11/22 02:11:05;;;;;;;;;7.75;6.50;;;;;-147.17;100.00;50143.22;5019196;28;51653;-70
2021/11/22 02:13:31;;;;;;;;;9.25;8.00;;;;;-147.17;100.00;50147.16;5029054;28;51184;-73
2021/11/22 02:15:56;;;;;;;;;8.00;7.25;;;;;-147.17;100.00;50160.94;5025794;28;51169;-73
2021/11/22 02:18:22;;;;;;;;;4.50;4.00;;;;;-147.17;100.00;50186.53;5029241;28;51368;-73
2021/11/22 02:20:48;;;;;;;;;7.00;7.00;;;;;-147.17;100.00;50131.41;5018952;28;51817;-73
2021/11/22 02:23:14;;;;;;;;;6.75;5.50;;;;;-147.17;100.00;50162.91;5032176;28;51220;-69
2021/11/22 02:25:41;;;;;;;;;6.25;6.25;;;;;-147.17;100.00;50153.06;5016244;28;52524;-69
2021/11/22 02:28:08;;;;;;;;;6.25;4.25;;;;;-147.17;100.00;50174.72;5018666;28;53975;-69
2021/11/22 02:30:38;;;;;;;;;7.50;7.50;;;;;-147.17;100.00;50153.06;5027473;28;51158;-70
2021/11/22 02:33:09;;;;;;;;;8.75;7.00;;;;;-147.17;100.00;50188.50;5020056;28;51041;-71
2021/11/22 02:35:39;;;;;;;;;7.50;6.75;;;;;-147.17;100.00;50162.91;5028044;28;51124;-72
2021/11/22 02:38:05;;;;;;;;;8.00;6.25;;;;;-147.17;100.00;50198.34;5030045;28;52811;-70
2021/11/22 02:40:30;;;;;;;;;7.00;6.00;;;;;-147.17;100.00;50180.63;5019880;28;51211;-65
2021/11/22 02:42:58;;;;;;;;;7.00;6.00;;;;;-147.17;100.00;50170.78;5022073;28;51276;-71
2021/11/22 02:45:23;;;;;;;;;7.50;7.00;;;;;-147.17;100.00;50223.94;5031929;28;51250;-69
2021/11/22 02:47:50;;;;;;;;;8.50;7.50;;;;;-147.17;100.00;50168.81;5031492;28;50986;-72
2021/11/22 02:50:19;;;;;;;;;7.75;6.75;;;;;-147.17;100.00;50170.78;5021542;28;51172;-68
2021/11/22 02:52:45;;;;;;;;;8.75;8.00;;;;;-147.17;100.00;50155.03;5022378;28;51002;-73
2021/11/22 02:55:13;;;;;;;;;8.75;6.50;;;;;-147.17;100.00;50188.50;5020324;28;51105;-70
2021/11/22 02:57:39;;;;;;;;;6.00;4.75;;;;;-147.17;100.00;50186.53;5020927;28;52904;-72
2021/11/22 03:00:13;;;;;;;;;8.25;7.50;;;;;-147.17;100.00;50231.81;5023046;28;52540;-68
2021/11/22 03:02:39;;;;;;;;;8.50;8.25;;;;;-147.17;100.00;50180.63;5006703;28;51206;-70
2021/11/22 03:05:05;;;;;;;;;8.00;8.00;;;;;-147.17;100.00;50182.59;5024802;28;50931;-70
2021/11/22 03:07:30;;;;;;;;;10.00;8.00;;;;;-147.17;100.00;50178.66;5021170;28;51835;-71
2021/11/22 03:09:56;;;;;;;;;9.50;7.00;;;;;-147.17;100.00;50174.72;5021743;28;51247;-75
2021/11/22 03:12:21;;;;;;;;;8.25;8.25;;;;;-147.17;100.00;50194.41;5023339;28;51173;-75
2021/11/22 03:14:47;;;;;;;;;7.00;7.00;;;;;-147.17;100.00;50186.53;5023101;28;51326;-70
2021/11/22 03:17:13;;;;;;;;;7.00;7.00;;;;;-147.17;100.00;50190.47;5028495;28;52043;-74
2021/11/22 03:19:38;;;;;;;;;9.50;8.00;;;;;-147.17;100.00;50198.34;5025003;28;52682;-69
2021/11/22 03:22:04;;;;;;;;;9.00;8.00;;;;;-147.17;100.00;50198.34;5027855;28;51852;-69
2021/11/22 03:24:29;;;;;;;;;11.75;10.25;;;;;-147.17;100.00;50166.84;5029154;28;51505;-70
2021/11/22 03:26:55;;;;;;;;;5.25;5.25;;;;;-147.17;100.00;50184.56;5034395;28;51213;-76
2021/11/22 03:29:21;;;;;;;;;12.50;9.00;;;;;-147.17;100.00;50192.44;5042539;28;51061;-71
2021/11/22 03:31:46;;;;;;;;;7.50;6.75;;;;;-147.17;100.00;50186.53;5040248;28;51093;-69
2021/11/22 03:34:13;;;;;;;;;8.00;7.50;;;;;-147.17;100.00;50196.38;5031665;28;51207;-72
2021/11/22 03:36:40;;;;;;;;;6.25;6.25;;;;;-147.17;100.00;50186.53;5028524;28;51085;-71
2021/11/22 03:39:16;;;;;;;;;9.25;7.00;;;;;-147.17;100.00;50190.47;5029860;28;51481;-71
2021/11/22 03:41:41;;;;;;;;;7.00;6.75;;;;;-147.17;100.00;50190.47;5029406;28;51318;-70
2021/11/22 03:44:16;;;;;;;;;10.50;10.50;;;;;-147.17;100.00;50155.03;5025941;28;51234;-71
2021/11/22 03:46:49;;;;;;;;;10.00;7.75;;;;;-147.17;100.00;50206.22;5041432;28;52561;-68
2021/11/22 03:49:15;;;;;;;;;7.00;7.00;;;;;-147.17;100.00;50180.63;5025803;28;52166;-71
2021/11/22 03:51:41;;;;;;;;;8.00;7.25;;;;;-147.17;100.00;50198.34;5031702;28;50971;-70
2021/11/22 03:54:08;;;;;;;;;8.50;7.00;;;;;-147.17;100.00;50170.78;5027490;28;52678;-71
2021/11/22 03:56:33;;;;;;;;;7.75;6.75;;;;;-147.17;100.00;50216.06;5007545;28;51867;-71
2021/11/22 03:59:00;;;;;;;;;7.00;6.50;;;;;-147.17;100.00;50198.34;5028275;28;51114;-72
2021/11/22 04:01:25;;;;;;;;;7.75;7.00;;;;;-147.17;100.00;50166.84;5024597;28;51572;-70
2021/11/22 04:03:51;;;;;;;;;11.00;10.50;;;;;-147.17;100.00;50178.66;5024507;28;51559;-71
2021/11/22 04:06:16;;;;;;;;;7.50;7.50;;;;;-147.17;100.00;50186.53;5027431;28;52321;-72
2021/11/22 04:08:43;;;;;;;;;9.50;8.00;;;;;-147.17;100.00;50168.81;5026470;28;51069;-71
2021/11/22 04:11:10;;;;;;;;;10.25;10.25;;;;;-147.17;100.00;50170.78;5025948;28;51193;-71
2021/11/22 04:13:35;;;;;;;;;14.25;11.25;;;;;-147.17;100.00;50178.66;5026257;28;51287;-72
2021/11/22 04:16:01;;;;;;;;;6.75;6.00;;;;;-147.17;100.00;50182.59;5028711;28;51167;-72
2021/11/22 04:18:27;;;;;;;;;7.75;7.50;;;;;-147.17;100.00;50168.81;5026203;28;51751;-72
2021/11/22 04:20:53;;;;;;;;;9.75;8.25;;;;;-147.17;100.00;50198.34;5025496;28;51290;-71
2021/11/22 04:23:18;;;;;;;;;13.00;10.00;;;;;-147.17;100.00;50206.22;5028300;28;51054;-71
2021/11/22 04:25:44;;;;;;;;;9.25;8.00;;;;;-147.17;100.00;50186.53;5025957;28;51175;-71
2021/11/22 04:28:10;;;;;;;;;13.00;10.25;;;;;-147.17;100.00;50194.41;5027154;28;51177;-67
2021/11/22 04:30:36;;;;;;;;;11.25;9.25;;;;;-147.17;100.00;50174.72;5024138;28;51339;-71
2021/11/22 04:33:02;;;;;;;;;8.50;7.50;;;;;-147.17;100.00;50204.25;5029130;28;51358;-71
2021/11/22 04:35:27;;;;;;;;;11.75;10.25;;;;;-147.17;100.00;50198.34;5037172;28;51884;-71
2021/11/22 04:37:53;;;;;;;;;7.50;7.00;;;;;-147.17;100.00;50196.38;5037242;28;51015;-69
2021/11/22 04:40:19;;;;;;;;;11.25;9.25;;;;;-147.17;100.00;50200.31;5037643;28;51003;-68
2021/11/22 04:42:47;;;;;;;;;11.00;11.00;;;;;-147.17;100.00;50172.75;5025903;28;51228;-68
2021/11/22 04:45:14;;;;;;;;;9.25;8.75;;;;;-147.17;100.00;50190.47;5023538;28;51340;-68
2021/11/22 04:47:40;;;;;;;;;11.00;8.75;;;;;-147.17;100.00;50178.66;5024827;28;51378;-72
2021/11/22 04:50:07;;;;;;;;;10.25;10.00;;;;;-147.17;100.00;50194.41;5023483;28;51316;-69
2021/11/22 04:52:33;;;;;;;;;9.25;8.50;;;;;-147.17;100.00;50143.22;5024754;28;51960;-72
2021/11/22 04:54:59;;;;;;;;;10.75;7.75;;;;;-147.17;100.00;50178.66;5028986;28;51449;-70
2021/11/22 04:57:24;;;;;;;;;16.25;13.25;;;;;-147.17;100.00;50180.63;5024920;28;51025;-70
2021/11/22 04:59:50;;;;;;;;;9.00;8.25;;;;;-147.17;100.00;50188.50;5023106;28;51195;-70
2021/11/22 05:02:15;;;;;;;;;10.00;10.00;;;;;-147.17;100.00;50204.25;5031563;28;51003;-70
2021/11/22 05:04:40;;;;;;;;;12.00;11.00;;;;;-147.17;100.00;50196.38;5026793;28;52467;-70
2021/11/22 05:07:07;;;;;;;;;11.50;10.25;;;;;-147.17;100.00;50198.34;5026180;28;51126;-71
2021/11/22 05:09:32;;;;;;;;;13.00;13.00;;;;;-147.17;100.00;50178.66;5030015;28;51108;-70
2021/11/22 05:11:58;;;;;;;;;11.00;10.75;;;;;-147.17;100.00;50170.78;5020196;28;51142;-70
2021/11/22 05:14:24;;;;;;;;;12.50;11.75;;;;;-147.17;100.00;50182.59;5045590;28;51887;-70
2021/11/22 05:16:50;;;;;;;;;13.25;12.25;;;;;-147.17;100.00;50212.13;5025587;28;51026;-70
2021/11/22 05:19:16;;;;;;;;;13.00;12.25;;;;;-147.17;100.00;50216.06;5023055;28;51106;-70
2021/11/22 05:21:41;;;;;;;;;11.50;10.25;;;;;-147.17;100.00;50212.13;5029437;28;51263;-70
2021/11/22 05:24:08;;;;;;;;;11.50;11.00;;;;;-147.17;100.00;50208.19;5025895;28;51108;-71
2021/11/22 05:26:34;;;;;;;;;15.25;13.00;;;;;-147.17;100.00;50194.41;5038193;28;53107;-71
2021/11/22 05:29:01;;;;;;;;;11.25;11.00;;;;;-147.17;100.00;50198.34;5039147;28;51183;-70
2021/11/22 05:31:26;;;;;;;;;11.00;9.25;;;;;-147.17;100.00;50184.56;5024968;28;50976;-71
2021/11/22 05:33:52;;;;;;;;;13.00;10.75;;;;;-147.17;100.00;50176.69;5029054;28;51999;-70
2021/11/22 05:36:18;;;;;;;;;17.75;15.50;;;;;-147.17;100.00;50192.44;5026693;28;51003;-70
2021/11/22 05:38:45;;;;;;;;;14.75;12.00;;;;;-147.17;100.00;50194.41;5025819;28;51331;-70
2021/11/22 05:41:11;;;;;;;;;14.00;12.50;;;;;-147.17;100.00;50206.22;5024270;28;51128;-70
2021/11/22 05:43:36;;;;;;;;;11.00;9.75;;;;;-147.17;100.00;50206.22;5029305;28;52592;-69
2021/11/22 05:46:04;;;;;;;;;16.25;13.00;;;;;-147.17;100.00;50190.47;5025103;28;51414;-69
2021/11/22 05:48:29;;;;;;;;;12.25;10.25;;;;;-147.17;100.00;50188.50;5021754;28;51141;-70
2021/11/22 05:50:57;;;;;;;;;11.50;11.00;;;;;-147.17;100.00;50158.97;5022072;28;51390;-70
2021/11/22 05:53:23;;;;;;;;;18.00;17.50;;;;;-147.17;100.00;50186.53;5021757;28;51705;-70
2021/11/22 05:55:51;;;;;;;;;14.50;12.25;;;;;-147.17;100.00;50164.88;5024835;28;51005;-70
2021/11/22 05:58:18;;;;;;;;;15.50;14.75;;;;;-147.17;100.00;50164.88;5030806;28;51187;-70
2021/11/22 06:00:44;;;;;;;;;16.00;14.75;;;;;-147.17;100.00;50155.03;5025413;28;51400;-70
2021/11/22 06:03:10;;;;;;;;;16.00;15.00;;;;;-147.17;100.00;50210.16;5027251;28;51791;-70
2021/11/22 06:05:36;;;;;;;;;15.75;14.75;;;;;-147.17;100.00;50182.59;5033295;28;51051;-69
2021/11/22 06:08:02;;;;;;;;;16.00;15.00;;;;;-147.17;100.00;50168.81;5025141;28;51597;-69
2021/11/22 06:10:27;;;;;;;;;15.75;15.00;;;;;-147.17;100.00;50186.53;5033526;28;51008;-69
2021/11/22 06:12:53;;;;;;;;;14.50;13.00;;;;;-147.17;100.00;50180.63;5028049;28;51647;-69
2021/11/22 06:15:18;;;;;;;;;20.50;17.25;;;;;-147.17;100.00;50198.34;5031712;28;51290;-71
2021/11/22 06:17:44;;;;;;;;;21.00;20.00;;;;;-147.17;100.00;50218.03;5033508;28;51068;-71
2021/11/22 06:20:10;;;;;;;;;18.75;18.50;;;;;-147.17;100.00;50210.16;5033653;28;51079;-70
2021/11/22 06:22:36;;;;;;;;;25.00;22.50;;;;;-147.17;100.00;50194.41;5028864;28;51191;-70
2021/11/22 06:25:02;;;;;;;;;19.75;17.00;;;;;-147.17;100.00;50162.91;5026081;28;51242;-71
2021/11/22 06:27:27;;;;;;;;;25.00;22.25;;;;;-147.17;100.00;50178.66;5032339;28;51151;-70
2021/11/22 06:29:53;;;;;;;;;22.25;20.00;;;;;-147.17;100.00;50188.50;5030721;28;50938;-71
2021/11/22 06:32:19;;;;;;;;;23.50;22.75;;;;;-147.17;100.00;50172.75;5026515;28;52366;-70
2021/11/22 06:34:44;;;;;;;;;20.50;17.00;;;;;-147.17;100.00;50184.56;5016328;28;51071;-70
2021/11/22 06:37:10;;;;;;;;;23.00;21.50;;;;;-147.17;100.00;50174.72;5030693;28;51974;-70
2021/11/22 06:39:37;;;;;;;;;27.25;25.50;;;;;-147.17;100.00;50225.91;5029949;28;50923;-70
2021/11/22 06:42:03;;;;;;;;;22.50;21.00;;;;;-147.17;100.00;50186.53;5027480;28;51881;-70
2021/11/22 06:44:29;;;;;;;;;17.75;16.75;;;;;-147.17;100.00;50174.72;5032885;28;51069;-70
2021/11/22 06:46:54;;;;;;;;;24.00;22.50;;;;;-147.17;100.00;50198.34;5028785;28;51134;-70
2021/11/22 06:49:20;;;;;;;;;23.00;21.75;;;;;-147.17;100.00;50178.66;5031139;28;51346;-70
2021/11/22 06:51:46;;;;;;;;;19.75;19.00;;;;;-147.17;100.00;50143.22;5027603;28;52851;-70
2021/11/22 06:54:12;;;;;;;;;22.75;19.50;;;;;-147.17;100.00;50162.91;5020149;28;51188;-71
2021/11/22 06:56:38;;;;;;;;;24.50;23.00;;;;;-147.17;100.00;50172.75;5028317;28;51212;-71
2021/11/22 06:59:03;;;;;;;;;20.00;20.00;;;;;-147.17;100.00;50178.66;5029477;28;51321;-71
2021/11/22 07:01:29;;;;;;;;;20.75;20.00;;;;;-147.17;100.00;50186.53;5027180;28;51715;-70
2021/11/22 07:03:55;;;;;;;;;22.00;19.25;;;;;-147.17;100.00;50158.97;5027847;28;51118;-70
2021/11/22 07:06:20;;;;;;;;;19.00;18.75;;;;;-147.17;100.00;50186.53;5028005;28;51169;-71
2021/11/22 07:08:46;;;;;;;;;16.50;16.00;;;;;-147.17;100.00;50204.25;5045900;28;51635;-70
2021/11/22 07:11:11;;;;;;;;;22.50;21.50;;;;;-147.17;100.00;50166.84;5029006;28;52491;-70
2021/11/22 07:13:38;;;;;;;;;16.50;14.75;;;;;-147.17;100.00;50174.72;5029521;28;51113;-70
2021/11/22 07:16:04;;;;;;;;;23.00;23.00;;;;;-147.17;100.00;50186.53;5030057;28;51235;-70
2021/11/22 07:18:30;;;;;;;;;21.00;19.00;;;;;-147.17;100.00;50182.59;5026037;28;52497;-70
2021/11/22 07:20:56;;;;;;;;;18.25;15.75;;;;;-147.17;100.00;50172.75;5031461;28;52789;-70
2021/11/22 07:23:23;;;;;;;;;18.25;18.25;;;;;-147.17;100.00;50151.09;5023193;28;51312;-70
2021/11/22 07:25:51;;;;;;;;;26.00;19.75;;;;;-147.17;100.00;50194.41;5024830;28;51371;-71
2021/11/22 07:28:16;;;;;;;;;18.25;17.75;;;;;-147.17;100.00;50166.84;5030439;28;51152;-73
2021/11/22 07:30:43;;;;;;;;;19.25;17.25;;;;;-147.17;100.00;50170.78;5027152;28;52069;-73
2021/11/22 07:33:10;;;;;;;;;17.00;16.75;;;;;-147.17;100.00;50180.63;5017797;28;51354;-72
2021/11/22 07:35:36;;;;;;;;;19.75;17.25;;;;;-147.17;100.00;50151.09;5027285;28;51215;-71
2021/11/22 07:38:01;;;;;;;;;17.25;16.50;;;;;-147.17;100.00;50164.88;5031262;28;51450;-71
2021/11/22 07:40:26;;;;;;;;;20.00;18.50;;;;;-147.17;100.00;50168.81;5031156;28;51211;-72
2021/11/22 07:42:54;;;;;;;;;15.75;14.75;;;;;-147.17;100.00;50153.06;5018262;28;51079;-71
2021/11/22 07:45:21;;;;;;;;;16.25;16.00;;;;;-147.17;100.00;50172.75;5012836;28;51111;-72
2021/11/22 07:47:47;;;;;;;;;18.75;14.25;;;;;-147.17;100.00;50182.59;5015424;28;51383;-72
2021/11/22 07:50:12;;;;;;;;;13.50;13.25;;;;;-147.17;100.00;50186.53;5029772;28;51513;-72
2021/11/22 07:52:38;;;;;;;;;9.00;8.25;;;;;-147.17;100.00;50194.41;5022815;28;52320;-72
2021/11/22 07:55:04;;;;;;;;;13.00;13.00;;;;;-147.17;100.00;50170.78;5024787;28;51265;-74
2021/11/22 07:57:30;;;;;;;;;16.50;15.50;;;;;-147.17;100.00;50188.50;5003173;28;51780;-73
2021/11/22 07:59:56;;;;;;;;;16.00;15.00;;;;;-147.17;100.00;50204.25;5012611;28;51133;-73
2021/11/22 08:02:21;;;;;;;;;13.25;13.25;;;;;-147.17;100.00;50200.31;5019706;28;51204;-75
2021/11/22 08:04:47;;;;;;;;;17.25;16.50;;;;;-147.17;100.00;50223.94;5025198;28;51134;-69
2021/11/22 08:07:16;;;;;;;;;15.00;14.50;;;;;-147.17;100.00;50190.47;5013843;28;51311;-62
2021/11/22 08:09:46;;;;;;;;;15.75;13.25;;;;;-147.17;100.00;50178.66;5020618;28;51835;-67
2021/11/22 08:12:25;;;;;;;;;16.75;12.50;;;;;-147.17;100.00;50182.59;5026495;28;51175;-67
2021/11/22 08:14:52;;;;;;;;;16.25;12.00;;;;;-147.17;100.00;50206.22;5026005;28;51306;-65
2021/11/22 08:17:18;;;;;;;;;12.25;12.00;;;;;-147.17;100.00;50220.00;5020845;28;51153;-66
2021/11/22 08:19:43;;;;;;;;;15.50;13.75;;;;;-147.17;100.00;50202.28;5017465;28;54110;-64
2021/11/22 08:22:10;;;;;;;;;16.00;13.50;;;;;-147.17;100.00;50210.16;5023364;28;51404;-64
2021/11/22 08:24:35;;;;;;;;;16.75;14.50;;;;;-147.17;100.00;50178.66;5027115;28;51231;-65
2021/11/22 08:27:01;;;;;;;;;13.50;13.50;;;;;-147.17;100.00;50206.22;5029083;28;52787;-64
2021/11/22 08:29:27;;;;;;;;;17.50;14.00;;;;;-147.17;100.00;50182.59;5024588;28;51675;-62
2021/11/22 08:31:52;;;;;;;;;16.50;14.75;;;;;-147.17;100.00;50216.06;5028277;28;51191;-63
2021/11/22 08:34:17;;;;;;;;;16.00;13.75;;;;;-147.17;100.00;50198.34;5027530;28;50964;-64
2021/11/22 08:36:43;;;;;;;;;16.25;13.75;;;;;-147.17;100.00;50229.84;5028842;28;51086;-63
2021/11/22 08:39:08;;;;;;;;;14.00;12.25;;;;;-147.17;100.00;50206.22;5016526;28;50934;-64
2021/11/22 08:41:33;;;;;;;;;14.25;13.50;;;;;-147.17;100.00;50229.84;5027249;28;51125;-63
2021/11/22 08:43:59;;;;;;;;;14.00;13.00;;;;;-147.17;100.00;50206.22;5022365;28;51003;-64
2021/11/22 08:46:25;;;;;;;;;17.25;14.50;;;;;-147.17;100.00;50198.34;5029497;28;51156;-64
2021/11/22 08:48:50;;;;;;;;;15.75;14.00;;;;;-147.17;100.00;50218.03;5031560;28;51736;-65
2021/11/22 08:51:16;;;;;;;;;20.75;14.25;;;;;-147.17;100.00;50237.72;5021811;28;51653;-65
2021/11/22 08:53:42;;;;;;;;;23.75;22.25;;;;;-147.17;100.00;50206.22;5027468;28;51094;-64
2021/11/22 08:56:07;;;;;;;;;13.00;12.00;;;;;-147.17;100.00;50210.16;5012969;28;51202;-65
2021/11/22 08:58:33;;;;;;;;;15.75;15.00;;;;;-147.17;100.00;50184.56;5029395;28;51838;-65
2021/11/22 09:00:58;;;;;;;;;12.75;12.25;;;;;-147.17;100.00;50210.16;5029067;28;52808;-65
2021/11/22 09:03:24;;;;;;;;;12.00;10.25;;;;;-147.17;100.00;50237.72;5027805;28;51066;-65
2021/11/22 09:05:49;;;;;;;;;11.25;10.00;;;;;-147.17;100.00;50245.59;5032180;28;51193;-65
2021/11/22 09:08:16;;;;;;;;;11.50;9.75;;;;;-147.17;100.00;50241.66;5029018;28;50958;-66
2021/11/22 09:10:42;;;;;;;;;12.25;10.25;;;;;-147.17;100.00;50257.41;5013114;28;51039;-65
2021/11/22 09:13:08;;;;;;;;;10.00;9.50;;;;;-147.17;100.00;50235.75;5023353;28;51505;-65
2021/11/22 09:15:33;;;;;;;;;9.25;9.00;;;;;-147.17;100.00;50253.47;5013968;28;51020;-65
2021/11/22 09:17:59;;;;;;;;;8.00;8.00;;;;;-147.17;100.00;50241.66;5022814;28;52083;-65
2021/11/22 09:20:26;;;;;;;;;14.25;11.50;;;;;-147.17;100.00;50231.81;5027471;28;51014;-65
2021/11/22 09:22:56;;;;;;;;;10.25;10.25;;;;;-147.17;100.00;50245.59;5018198;28;50927;-65
2021/11/22 09:25:22;;;;;;;;;11.50;9.00;;;;;-147.17;100.00;50239.69;5018446;28;51106;-65
2021/11/22 09:27:50;;;;;;;;;9.00;8.50;;;;;-147.17;100.00;50271.19;5024050;28;51322;-67
2021/11/22 09:30:16;;;;;;;;;8.00;8.00;;;;;-147.17;100.00;50267.25;5034622;28;50945;-68
2021/11/22 09:32:41;;;;;;;;;10.00;9.00;;;;;-147.17;100.00;50267.25;5028763;28;50926;-68
2021/11/22 09:35:07;;;;;;;;;13.50;12.25;;;;;-147.17;100.00;50281.03;5021259;28;50928;-68
2021/11/22 09:37:34;;;;;;;;;15.75;11.50;;;;;-147.17;100.00;50251.50;5027992;28;51990;-68
2021/11/22 09:39:59;;;;;;;;;8.75;8.75;;;;;-147.17;100.00;50221.97;5024659;28;51282;-68
2021/11/22 09:42:24;;;;;;;;;11.25;9.75;;;;;-147.17;100.00;50292.84;5020105;28;51013;-67
2021/11/22 09:44:50;;;;;;;;;8.00;7.50;;;;;-147.17;100.00;50283.00;5022212;28;51438;-67
2021/11/22 09:47:15;;;;;;;;;8.25;8.00;;;;;-147.17;100.00;50296.78;5020389;28;51675;-68
2021/11/22 09:49:40;;;;;;;;;9.75;9.50;;;;;-147.17;100.00;50316.44;5021598;28;51123;-67
2021/11/22 09:52:06;;;;;;;;;12.00;11.00;;;;;-147.17;100.00;50251.50;5023280;28;51003;-68
2021/11/22 09:54:31;;;;;;;;;10.25;9.00;;;;;-147.17;100.00;50273.16;5020231;28;51319;-67
2021/11/22 09:56:57;;;;;;;;;9.00;9.00;;;;;-147.17;100.00;50277.09;5015846;28;51352;-66
2021/11/22 09:59:23;;;;;;;;;11.50;10.00;;;;;-147.17;100.00;50300.72;5021475;28;51076;-66
2021/11/22 10:01:54;;;;;;;;;10.00;8.50;;;;;-147.17;100.00;50277.09;5029128;28;51160;-66
2021/11/22 10:04:19;;;;;;;;;8.75;8.50;;;;;-147.17;100.00;50273.16;5047104;28;51017;-66
2021/11/22 10:06:50;;;;;;;;;10.00;9.00;;;;;-147.17;100.00;50271.19;5026613;28;52131;-66
2021/11/22 10:09:33;;;;;;;;;9.50;9.25;;;;;-147.17;100.00;50277.09;5023839;28;51209;-66
2021/11/22 10:12:06;;;;;;;;;8.75;8.00;;;;;-147.17;100.00;50277.09;5028889;28;51163;-66
2021/11/22 10:14:40;;;;;;;;;8.50;8.00;;;;;-147.17;100.00;50279.06;5034623;28;51170;-67
2021/11/22 10:17:38;;;;;;;;;10.00;9.50;;;;;-147.17;100.00;50281.03;5028456;28;52810;-67
2021/11/22 10:20:07;;;;;;;;;5.25;5.25;;;;;-147.17;100.00;50283.00;5027085;28;50990;-67
2021/11/22 10:22:54;;;;;;;;;8.75;8.25;;;;;-147.17;100.00;50296.78;5021970;28;51192;-66
2021/11/22 10:25:36;;;;;;;;;7.25;7.00;;;;;-147.17;100.00;50265.28;5031140;28;51152;-67
2021/11/22 10:28:25;;;;;;;;;8.75;8.25;;;;;-147.17;100.00;50275.13;5037861;28;52719;-67
2021/11/22 10:31:02;;;;;;;;;6.75;6.75;;;;;-147.17;100.00;50326.28;5020732;28;51070;-66
2021/11/22 10:33:30;;;;;;;;;7.00;7.00;;;;;-147.17;100.00;50308.59;5030636;28;51051;-66
2021/11/22 10:36:00;;;;;;;;;13.25;10.25;;;;;-147.17;100.00;50312.53;5032234;28;51458;-66
2021/11/22 10:38:34;;;;;;;;;9.00;9.00;;;;;-147.17;100.00;50296.78;5026180;28;51825;-67
2021/11/22 10:41:10;;;;;;;;;9.75;8.75;;;;;-147.17;100.00;50318.41;5024060;28;51141;-67
2021/11/22 10:43:36;;;;;;;;;7.25;7.25;;;;;-147.17;100.00;50283.00;5034149;28;51011;-66
2021/11/22 10:46:06;;;;;;;;;7.00;7.00;;;;;-147.17;100.00;50322.34;5031245;28;51301;-66
2021/11/22 10:48:31;;;;;;;;;7.25;7.25;;;;;-147.17;100.00;50312.53;5015358;28;50924;-66
2021/11/22 10:51:12;;;;;;;;;8.00;7.00;;;;;-147.17;100.00;50308.59;5013498;28;51603;-68
2021/11/22 10:53:48;;;;;;;;;7.75;5.00;;;;;-147.17;100.00;50324.31;5026113;28;51364;-66
2021/11/22 10:56:17;;;;;;;;;11.67;8.67;;;;;-147.17;100.00;50324.31;5047544;28;51220;-66
2021/11/22 10:58:48;;;;;;;;;8.75;7.00;;;;;-147.17;100.00;50318.41;5024118;28;52050;-66
2021/11/22 11:01:19;;;;;;;;;9.25;8.00;;;;;-147.17;100.00;50334.16;5020426;28;53030;-66